sensor_id;sensor_type;location;lat;lon;timestamp;P1;durP1;ratioP1;P2;durP2;ratioP2
55037;SDS011;40937;53.594;10.034;2022-10-04T00:01:02;9.73;;;2.30;;
55037;SDS011;40937;53.594;10.034;2022-10-04T00:03:33;7.53;;;2.92;;
55037;SDS011;40937;53.594;10.034;2022-10-04T00:06:03;13.60;;;2.40;;
55037;SDS011;40937;53.594;10.034;2022-10-04T00:08:39;9.18;;;2.42;;
55037;SDS011;40937;53.594;10.034;2022-10-04T00:11:12;10.00;;;2.88;;
55037;SDS011;40937;53.594;10.034;2022-10-04T00:13:44;10.38;;;2.58;;
55037;SDS011;40937;53.594;10.034;2022-10-04T00:16:17;8.55;;;2.95;;
55037;SDS011;40937;53.594;10.034;2022-10-04T00:18:52;5.60;;;2.33;;
55037;SDS011;40937;53.594;10.034;2022-10-04T00:24:26;15.63;;;3.00;;
55037;SDS011;40937;53.594;10.034;2022-10-04T00:29:38;6.88;;;2.42;;
55037;SDS011;40937;53.594;10.034;2022-10-04T00:32:23;11.18;;;3.13;;
55037;SDS011;40937;53.594;10.034;2022-10-04T00:34:55;12.05;;;2.70;;
55037;SDS011;40937;53.594;10.034;2022-10-04T00:37:22;8.65;;;2.67;;
55037;SDS011;40937;53.594;10.034;2022-10-04T00:39:59;6.53;;;2.72;;
55037;SDS011;40937;53.594;10.034;2022-10-04T00:42:38;7.95;;;2.40;;
55037;SDS011;40937;53.594;10.034;2022-10-04T00:48:04;10.48;;;2.75;;
55037;SDS011;40937;53.594;10.034;2022-10-04T00:50:48;10.93;;;2.92;;
55037;SDS011;40937;53.594;10.034;2022-10-04T00:53:33;11.30;;;3.08;;
55037;SDS011;40937;53.594;10.034;2022-10-04T00:56:07;9.80;;;3.20;;
55037;SDS011;40937;53.594;10.034;2022-10-04T00:58:38;12.02;;;2.63;;
55037;SDS011;40937;53.594;10.034;2022-10-04T01:01:12;5.43;;;2.42;;
55037;SDS011;40937;53.594;10.034;2022-10-04T01:03:39;9.82;;;2.63;;
55037;SDS011;40937;53.594;10.034;2022-10-04T01:06:09;5.90;;;2.13;;
55037;SDS011;40937;53.594;10.034;2022-10-04T01:08:39;8.60;;;3.03;;
55037;SDS011;40937;53.594;10.034;2022-10-04T01:11:12;8.43;;;2.42;;
55037;SDS011;40937;53.594;10.034;2022-10-04T01:13:44;10.60;;;2.97;;
55037;SDS011;40937;53.594;10.034;2022-10-04T01:16:15;9.05;;;2.80;;
55037;SDS011;40937;53.594;10.034;2022-10-04T01:18:45;6.55;;;2.40;;
55037;SDS011;40937;53.594;10.034;2022-10-04T01:21:21;10.75;;;3.00;;
55037;SDS011;40937;53.594;10.034;2022-10-04T01:23:53;10.45;;;3.00;;
55037;SDS011;40937;53.594;10.034;2022-10-04T01:26:46;8.70;;;3.28;;
55037;SDS011;40937;53.594;10.034;2022-10-04T01:29:14;7.93;;;3.00;;
55037;SDS011;40937;53.594;10.034;2022-10-04T01:31:44;6.35;;;3.13;;
55037;SDS011;40937;53.594;10.034;2022-10-04T01:34:13;13.10;;;3.97;;
55037;SDS011;40937;53.594;10.034;2022-10-04T01:36:41;11.45;;;4.45;;
55037;SDS011;40937;53.594;10.034;2022-10-04T01:39:09;10.32;;;4.82;;
55037;SDS011;40937;53.594;10.034;2022-10-04T01:41:38;11.23;;;4.75;;
55037;SDS011;40937;53.594;10.034;2022-10-04T01:44:12;13.80;;;5.68;;
55037;SDS011;40937;53.594;10.034;2022-10-04T01:46:48;11.95;;;5.60;;
55037;SDS011;40937;53.594;10.034;2022-10-04T01:49:17;14.02;;;5.57;;
55037;SDS011;40937;53.594;10.034;2022-10-04T01:51:48;14.70;;;6.65;;
55037;SDS011;40937;53.594;10.034;2022-10-04T01:54:24;13.10;;;5.50;;
55037;SDS011;40937;53.594;10.034;2022-10-04T01:56:59;15.88;;;5.15;;
55037;SDS011;40937;53.594;10.034;2022-10-04T01:59:31;9.50;;;5.57;;
55037;SDS011;40937;53.594;10.034;2022-10-04T02:02:05;10.52;;;4.85;;
55037;SDS011;40937;53.594;10.034;2022-10-04T02:04:36;12.95;;;5.60;;
55037;SDS011;40937;53.594;10.034;2022-10-04T02:07:09;14.43;;;5.10;;
55037;SDS011;40937;53.594;10.034;2022-10-04T02:09:40;10.98;;;4.95;;
55037;SDS011;40937;53.594;10.034;2022-10-04T02:12:13;9.43;;;4.47;;
55037;SDS011;40937;53.594;10.034;2022-10-04T02:14:43;14.68;;;5.18;;
55037;SDS011;40937;53.594;10.034;2022-10-04T02:17:17;10.68;;;4.68;;
55037;SDS011;40937;53.594;10.034;2022-10-04T02:19:46;8.63;;;3.92;;
55037;SDS011;40937;53.594;10.034;2022-10-04T02:22:14;12.43;;;4.32;;
55037;SDS011;40937;53.594;10.034;2022-10-04T02:24:43;7.50;;;3.70;;
55037;SDS011;40937;53.594;10.034;2022-10-04T02:27:11;9.00;;;3.85;;
55037;SDS011;40937;53.594;10.034;2022-10-04T02:29:38;12.52;;;3.75;;
55037;SDS011;40937;53.594;10.034;2022-10-04T02:32:05;6.78;;;2.90;;
55037;SDS011;40937;53.594;10.034;2022-10-04T02:34:50;8.77;;;3.47;;
55037;SDS011;40937;53.594;10.034;2022-10-04T02:37:19;8.77;;;3.10;;
55037;SDS011;40937;53.594;10.034;2022-10-04T02:39:50;9.07;;;3.30;;
55037;SDS011;40937;53.594;10.034;2022-10-04T02:42:20;9.43;;;3.95;;
55037;SDS011;40937;53.594;10.034;2022-10-04T02:44:59;15.35;;;3.50;;
55037;SDS011;40937;53.594;10.034;2022-10-04T02:47:33;13.20;;;3.72;;
55037;SDS011;40937;53.594;10.034;2022-10-04T02:50:08;13.63;;;3.70;;
55037;SDS011;40937;53.594;10.034;2022-10-04T02:52:47;10.85;;;3.20;;
55037;SDS011;40937;53.594;10.034;2022-10-04T02:55:21;9.70;;;3.38;;
55037;SDS011;40937;53.594;10.034;2022-10-04T02:57:50;7.07;;;3.10;;
55037;SDS011;40937;53.594;10.034;2022-10-04T03:00:19;11.70;;;3.58;;
55037;SDS011;40937;53.594;10.034;2022-10-04T03:03:08;7.13;;;3.08;;
55037;SDS011;40937;53.594;10.034;2022-10-04T03:05:40;8.15;;;2.92;;
55037;SDS011;40937;53.594;10.034;2022-10-04T03:08:08;6.70;;;2.80;;
55037;SDS011;40937;53.594;10.034;2022-10-04T03:10:37;8.35;;;2.75;;
55037;SDS011;40937;53.594;10.034;2022-10-04T03:13:07;5.55;;;2.63;;
55037;SDS011;40937;53.594;10.034;2022-10-04T03:15:34;8.52;;;3.10;;
55037;SDS011;40937;53.594;10.034;2022-10-04T03:18:01;10.55;;;3.75;;
55037;SDS011;40937;53.594;10.034;2022-10-04T03:20:27;13.93;;;2.97;;
55037;SDS011;40937;53.594;10.034;2022-10-04T03:22:54;8.63;;;2.80;;
55037;SDS011;40937;53.594;10.034;2022-10-04T03:25:22;6.93;;;2.90;;
55037;SDS011;40937;53.594;10.034;2022-10-04T03:27:55;10.25;;;2.90;;
55037;SDS011;40937;53.594;10.034;2022-10-04T03:30:26;8.95;;;2.88;;
55037;SDS011;40937;53.594;10.034;2022-10-04T03:33:19;10.95;;;3.10;;
55037;SDS011;40937;53.594;10.034;2022-10-04T03:36:37;8.20;;;2.92;;
55037;SDS011;40937;53.594;10.034;2022-10-04T03:39:26;8.85;;;2.92;;
55037;SDS011;40937;53.594;10.034;2022-10-04T03:42:35;11.65;;;2.95;;
55037;SDS011;40937;53.594;10.034;2022-10-04T03:45:23;7.18;;;3.00;;
55037;SDS011;40937;53.594;10.034;2022-10-04T03:48:13;8.13;;;3.45;;
55037;SDS011;40937;53.594;10.034;2022-10-04T03:50:54;7.03;;;2.80;;
55037;SDS011;40937;53.594;10.034;2022-10-04T03:53:40;12.85;;;3.42;;
55037;SDS011;40937;53.594;10.034;2022-10-04T03:56:41;7.40;;;3.25;;
55037;SDS011;40937;53.594;10.034;2022-10-04T03:59:17;8.07;;;3.38;;
55037;SDS011;40937;53.594;10.034;2022-10-04T04:02:13;11.32;;;2.80;;
55037;SDS011;40937;53.594;10.034;2022-10-04T04:05:16;11.15;;;2.78;;
55037;SDS011;40937;53.594;10.034;2022-10-04T04:07:57;11.35;;;3.00;;
55037;SDS011;40937;53.594;10.034;2022-10-04T04:11:22;8.10;;;3.30;;
55037;SDS011;40937;53.594;10.034;2022-10-04T04:14:05;8.35;;;3.22;;
55037;SDS011;40937;53.594;10.034;2022-10-04T04:16:54;6.82;;;3.20;;
55037;SDS011;40937;53.594;10.034;2022-10-04T04:20:35;7.43;;;3.85;;
55037;SDS011;40937;53.594;10.034;2022-10-04T04:23:25;14.50;;;6.55;;
55037;SDS011;40937;53.594;10.034;2022-10-04T04:26:20;5.50;;;3.03;;
55037;SDS011;40937;53.594;10.034;2022-10-04T04:29:11;6.97;;;3.42;;
55037;SDS011;40937;53.594;10.034;2022-10-04T04:31:55;6.05;;;3.28;;
55037;SDS011;40937;53.594;10.034;2022-10-04T04:34:49;8.85;;;3.15;;
55037;SDS011;40937;53.594;10.034;2022-10-04T04:38:00;11.43;;;3.63;;
55037;SDS011;40937;53.594;10.034;2022-10-04T04:41:12;9.00;;;2.90;;
55037;SDS011;40937;53.594;10.034;2022-10-04T04:43:54;8.73;;;2.92;;
55037;SDS011;40937;53.594;10.034;2022-10-04T04:46:37;7.38;;;2.35;;
55037;SDS011;40937;53.594;10.034;2022-10-04T04:49:42;10.27;;;3.10;;
55037;SDS011;40937;53.594;10.034;2022-10-04T04:55:35;8.68;;;3.22;;
55037;SDS011;40937;53.594;10.034;2022-10-04T04:58:25;10.45;;;3.67;;
55037;SDS011;40937;53.594;10.034;2022-10-04T05:01:47;7.00;;;2.92;;
55037;SDS011;40937;53.594;10.034;2022-10-04T05:04:33;13.20;;;3.70;;
55037;SDS011;40937;53.594;10.034;2022-10-04T05:07:35;9.52;;;3.22;;
55037;SDS011;40937;53.594;10.034;2022-10-04T05:10:37;16.75;;;4.25;;
55037;SDS011;40937;53.594;10.034;2022-10-04T05:13:35;10.07;;;4.38;;
55037;SDS011;40937;53.594;10.034;2022-10-04T05:23:17;10.57;;;4.13;;
55037;SDS011;40937;53.594;10.034;2022-10-04T05:27:02;9.88;;;3.45;;
55037;SDS011;40937;53.594;10.034;2022-10-04T05:30:12;9.70;;;3.65;;
55037;SDS011;40937;53.594;10.034;2022-10-04T05:33:07;14.95;;;4.28;;
55037;SDS011;40937;53.594;10.034;2022-10-04T05:39:34;13.82;;;4.60;;
55037;SDS011;40937;53.594;10.034;2022-10-04T05:49:11;14.82;;;4.65;;
55037;SDS011;40937;53.594;10.034;2022-10-04T05:51:53;9.90;;;4.38;;
55037;SDS011;40937;53.594;10.034;2022-10-04T05:58:26;9.00;;;4.25;;
55037;SDS011;40937;53.594;10.034;2022-10-04T06:01:16;13.68;;;5.07;;
55037;SDS011;40937;53.594;10.034;2022-10-04T06:07:30;25.25;;;5.55;;
55037;SDS011;40937;53.594;10.034;2022-10-04T06:10:47;8.85;;;4.03;;
55037;SDS011;40937;53.594;10.034;2022-10-04T06:13:58;11.88;;;4.72;;
55037;SDS011;40937;53.594;10.034;2022-10-04T06:17:03;13.40;;;4.50;;
55037;SDS011;40937;53.594;10.034;2022-10-04T06:20:21;11.13;;;4.90;;
55037;SDS011;40937;53.594;10.034;2022-10-04T06:23:36;12.02;;;5.43;;
55037;SDS011;40937;53.594;10.034;2022-10-04T06:33:08;15.40;;;4.60;;
55037;SDS011;40937;53.594;10.034;2022-10-04T06:39:27;11.52;;;4.95;;
55037;SDS011;40937;53.594;10.034;2022-10-04T06:45:47;10.57;;;4.95;;
55037;SDS011;40937;53.594;10.034;2022-10-04T06:52:10;10.68;;;4.72;;
55037;SDS011;40937;53.594;10.034;2022-10-04T06:57:37;11.45;;;6.40;;
55037;SDS011;40937;53.594;10.034;2022-10-04T07:00:28;18.50;;;6.13;;
55037;SDS011;40937;53.594;10.034;2022-10-04T07:03:08;13.93;;;6.13;;
55037;SDS011;40937;53.594;10.034;2022-10-04T07:06:06;13.07;;;5.85;;
55037;SDS011;40937;53.594;10.034;2022-10-04T07:08:46;16.90;;;6.72;;
55037;SDS011;40937;53.594;10.034;2022-10-04T07:11:36;16.92;;;7.43;;
55037;SDS011;40937;53.594;10.034;2022-10-04T07:14:11;20.40;;;6.53;;
55037;SDS011;40937;53.594;10.034;2022-10-04T07:16:54;22.25;;;7.60;;
55037;SDS011;40937;53.594;10.034;2022-10-04T07:19:54;22.58;;;7.80;;
55037;SDS011;40937;53.594;10.034;2022-10-04T07:22:27;19.67;;;7.78;;
55037;SDS011;40937;53.594;10.034;2022-10-04T07:25:15;16.33;;;7.25;;
55037;SDS011;40937;53.594;10.034;2022-10-04T07:27:54;19.83;;;8.00;;
55037;SDS011;40937;53.594;10.034;2022-10-04T07:30:44;19.35;;;7.90;;
55037;SDS011;40937;53.594;10.034;2022-10-04T07:33:17;23.73;;;8.20;;
55037;SDS011;40937;53.594;10.034;2022-10-04T07:36:19;17.63;;;8.07;;
55037;SDS011;40937;53.594;10.034;2022-10-04T07:39:03;17.02;;;8.50;;
55037;SDS011;40937;53.594;10.034;2022-10-04T07:41:46;15.50;;;8.15;;
55037;SDS011;40937;53.594;10.034;2022-10-04T07:44:41;21.02;;;7.78;;
55037;SDS011;40937;53.594;10.034;2022-10-04T07:47:17;17.02;;;8.07;;
55037;SDS011;40937;53.594;10.034;2022-10-04T07:52:53;18.38;;;6.68;;
55037;SDS011;40937;53.594;10.034;2022-10-04T07:58:08;17.05;;;6.95;;
55037;SDS011;40937;53.594;10.034;2022-10-04T08:00:47;18.27;;;7.78;;
55037;SDS011;40937;53.594;10.034;2022-10-04T08:03:23;19.88;;;7.38;;
55037;SDS011;40937;53.594;10.034;2022-10-04T08:06:08;21.23;;;7.28;;
55037;SDS011;40937;53.594;10.034;2022-10-04T08:11:20;21.35;;;7.15;;
55037;SDS011;40937;53.594;10.034;2022-10-04T08:13:57;15.13;;;6.93;;
55037;SDS011;40937;53.594;10.034;2022-10-04T08:16:33;15.30;;;7.30;;
55037;SDS011;40937;53.594;10.034;2022-10-04T08:19:10;18.10;;;6.90;;
55037;SDS011;40937;53.594;10.034;2022-10-04T08:21:54;19.55;;;7.35;;
55037;SDS011;40937;53.594;10.034;2022-10-04T08:24:27;19.77;;;7.03;;
55037;SDS011;40937;53.594;10.034;2022-10-04T08:27:03;14.75;;;6.60;;
55037;SDS011;40937;53.594;10.034;2022-10-04T08:29:47;16.38;;;7.63;;
55037;SDS011;40937;53.594;10.034;2022-10-04T08:32:27;17.58;;;6.80;;
55037;SDS011;40937;53.594;10.034;2022-10-04T08:38:07;20.50;;;7.20;;
55037;SDS011;40937;53.594;10.034;2022-10-04T08:44:07;22.20;;;7.05;;
55037;SDS011;40937;53.594;10.034;2022-10-04T08:47:04;25.65;;;7.60;;
55037;SDS011;40937;53.594;10.034;2022-10-04T08:53:19;15.90;;;7.50;;
55037;SDS011;40937;53.594;10.034;2022-10-04T08:56:14;17.63;;;7.43;;
55037;SDS011;40937;53.594;10.034;2022-10-04T08:59:18;23.65;;;7.95;;
55037;SDS011;40937;53.594;10.034;2022-10-04T09:02:07;19.02;;;7.78;;
55037;SDS011;40937;53.594;10.034;2022-10-04T09:05:12;21.67;;;7.18;;
55037;SDS011;40937;53.594;10.034;2022-10-04T09:08:02;19.70;;;7.10;;
55037;SDS011;40937;53.594;10.034;2022-10-04T09:10:57;17.17;;;7.45;;
55037;SDS011;40937;53.594;10.034;2022-10-04T09:13:47;20.83;;;7.20;;
55037;SDS011;40937;53.594;10.034;2022-10-04T09:16:32;13.68;;;6.40;;
55037;SDS011;40937;53.594;10.034;2022-10-04T09:19:17;20.63;;;6.85;;
55037;SDS011;40937;53.594;10.034;2022-10-04T09:21:53;18.83;;;7.47;;
55037;SDS011;40937;53.594;10.034;2022-10-04T09:24:49;15.45;;;6.40;;
55037;SDS011;40937;53.594;10.034;2022-10-04T09:27:31;20.83;;;6.88;;
55037;SDS011;40937;53.594;10.034;2022-10-04T09:30:13;17.60;;;6.05;;
55037;SDS011;40937;53.594;10.034;2022-10-04T09:35:53;21.33;;;6.38;;
55037;SDS011;40937;53.594;10.034;2022-10-04T09:38:46;15.15;;;6.85;;
55037;SDS011;40937;53.594;10.034;2022-10-04T09:41:41;18.77;;;5.95;;
55037;SDS011;40937;53.594;10.034;2022-10-04T09:44:27;20.00;;;7.28;;
55037;SDS011;40937;53.594;10.034;2022-10-04T09:47:26;15.82;;;6.28;;
55037;SDS011;40937;53.594;10.034;2022-10-04T10:13:23;18.60;;;6.45;;
55037;SDS011;40937;53.594;10.034;2022-10-04T10:23:37;11.63;;;5.00;;
55037;SDS011;40937;53.594;10.034;2022-10-04T10:27:33;16.95;;;5.47;;
55037;SDS011;40937;53.594;10.034;2022-10-04T10:30:22;12.27;;;5.22;;
55037;SDS011;40937;53.594;10.034;2022-10-04T13:01:49;11.00;;;3.63;;
55037;SDS011;40937;53.594;10.034;2022-10-04T13:04:28;8.13;;;3.40;;
55037;SDS011;40937;53.594;10.034;2022-10-04T13:07:08;10.95;;;3.45;;
55037;SDS011;40937;53.594;10.034;2022-10-04T13:10:06;10.18;;;3.35;;
55037;SDS011;40937;53.594;10.034;2022-10-04T13:12:55;11.70;;;3.97;;
55037;SDS011;40937;53.594;10.034;2022-10-04T13:15:35;9.88;;;3.13;;
55037;SDS011;40937;53.594;10.034;2022-10-04T13:18:11;11.23;;;3.60;;
55037;SDS011;40937;53.594;10.034;2022-10-04T13:20:49;15.98;;;3.92;;
55037;SDS011;40937;53.594;10.034;2022-10-04T13:23:24;8.90;;;3.92;;
55037;SDS011;40937;53.594;10.034;2022-10-04T13:26:14;12.75;;;3.95;;
55037;SDS011;40937;53.594;10.034;2022-10-04T13:29:00;7.00;;;3.45;;
55037;SDS011;40937;53.594;10.034;2022-10-04T13:31:31;15.73;;;4.38;;
55037;SDS011;40937;53.594;10.034;2022-10-04T13:34:07;9.38;;;3.05;;
55037;SDS011;40937;53.594;10.034;2022-10-04T13:36:49;8.27;;;3.22;;
55037;SDS011;40937;53.594;10.034;2022-10-04T13:39:28;8.88;;;4.00;;
55037;SDS011;40937;53.594;10.034;2022-10-04T13:44:47;7.72;;;3.20;;
55037;SDS011;40937;53.594;10.034;2022-10-04T13:47:39;7.22;;;3.67;;
55037;SDS011;40937;53.594;10.034;2022-10-04T13:50:51;10.00;;;3.45;;
55037;SDS011;40937;53.594;10.034;2022-10-04T13:53:28;7.47;;;3.28;;
55037;SDS011;40937;53.594;10.034;2022-10-04T13:56:29;5.47;;;3.05;;
55037;SDS011;40937;53.594;10.034;2022-10-04T13:59:14;6.90;;;3.58;;
55037;SDS011;40937;53.594;10.034;2022-10-04T14:08:01;6.82;;;3.03;;
55037;SDS011;40937;53.594;10.034;2022-10-04T14:10:59;6.88;;;3.08;;
55037;SDS011;40937;53.594;10.034;2022-10-04T14:14:03;4.22;;;2.78;;
55037;SDS011;40937;53.594;10.034;2022-10-04T14:23:36;6.30;;;2.72;;
55037;SDS011;40937;53.594;10.034;2022-10-04T14:29:26;8.10;;;3.00;;
55037;SDS011;40937;53.594;10.034;2022-10-04T14:32:34;7.63;;;3.17;;
55037;SDS011;40937;53.594;10.034;2022-10-04T14:35:25;8.65;;;3.08;;
55037;SDS011;40937;53.594;10.034;2022-10-04T14:41:05;7.43;;;2.97;;
55037;SDS011;40937;53.594;10.034;2022-10-04T14:44:02;6.75;;;2.53;;
55037;SDS011;40937;53.594;10.034;2022-10-04T14:46:56;5.88;;;2.53;;
55037;SDS011;40937;53.594;10.034;2022-10-04T14:49:43;5.95;;;3.10;;
55037;SDS011;40937;53.594;10.034;2022-10-04T14:52:27;7.68;;;2.85;;
55037;SDS011;40937;53.594;10.034;2022-10-04T14:55:09;5.57;;;2.13;;
55037;SDS011;40937;53.594;10.034;2022-10-04T14:57:51;7.20;;;2.95;;
55037;SDS011;40937;53.594;10.034;2022-10-04T15:00:26;6.82;;;2.58;;
55037;SDS011;40937;53.594;10.034;2022-10-04T15:03:13;6.10;;;2.38;;
55037;SDS011;40937;53.594;10.034;2022-10-04T15:05:58;6.07;;;2.63;;
55037;SDS011;40937;53.594;10.034;2022-10-04T15:11:38;6.35;;;2.47;;
55037;SDS011;40937;53.594;10.034;2022-10-04T15:14:21;8.52;;;2.90;;
55037;SDS011;40937;53.594;10.034;2022-10-04T15:16:58;19.75;;;3.28;;
55037;SDS011;40937;53.594;10.034;2022-10-04T15:19:27;7.15;;;3.03;;
55037;SDS011;40937;53.594;10.034;2022-10-04T15:22:01;3.97;;;2.40;;
55037;SDS011;40937;53.594;10.034;2022-10-04T15:24:45;8.95;;;3.13;;
55037;SDS011;40937;53.594;10.034;2022-10-04T15:30:23;6.00;;;2.80;;
55037;SDS011;40937;53.594;10.034;2022-10-04T15:35:40;4.72;;;2.58;;
55037;SDS011;40937;53.594;10.034;2022-10-04T15:38:21;5.13;;;2.65;;
55037;SDS011;40937;53.594;10.034;2022-10-04T15:40:59;6.45;;;3.08;;
55037;SDS011;40937;53.594;10.034;2022-10-04T15:43:33;7.35;;;3.08;;
55037;SDS011;40937;53.594;10.034;2022-10-04T15:46:25;8.65;;;2.38;;
55037;SDS011;40937;53.594;10.034;2022-10-04T15:52:10;7.53;;;2.55;;
55037;SDS011;40937;53.594;10.034;2022-10-04T15:55:11;9.38;;;3.22;;
55037;SDS011;40937;53.594;10.034;2022-10-04T16:00:53;6.07;;;2.60;;
55037;SDS011;40937;53.594;10.034;2022-10-04T16:03:37;5.57;;;2.50;;
55037;SDS011;40937;53.594;10.034;2022-10-04T16:06:15;6.32;;;3.13;;
55037;SDS011;40937;53.594;10.034;2022-10-04T16:08:50;9.00;;;2.78;;
55037;SDS011;40937;53.594;10.034;2022-10-04T16:17:17;10.50;;;3.30;;
55037;SDS011;40937;53.594;10.034;2022-10-04T16:20:02;11.70;;;3.60;;
55037;SDS011;40937;53.594;10.034;2022-10-04T16:25:53;5.35;;;2.65;;
55037;SDS011;40937;53.594;10.034;2022-10-04T16:28:22;6.90;;;2.97;;
55037;SDS011;40937;53.594;10.034;2022-10-04T16:36:59;10.90;;;2.80;;
55037;SDS011;40937;53.594;10.034;2022-10-04T16:39:38;10.23;;;3.22;;
55037;SDS011;40937;53.594;10.034;2022-10-04T16:42:28;6.00;;;2.70;;
55037;SDS011;40937;53.594;10.034;2022-10-04T16:48:20;8.00;;;3.58;;
55037;SDS011;40937;53.594;10.034;2022-10-04T16:51:05;11.68;;;3.30;;
55037;SDS011;40937;53.594;10.034;2022-10-04T16:53:49;5.75;;;3.13;;
55037;SDS011;40937;53.594;10.034;2022-10-04T16:56:23;26.73;;;7.20;;
55037;SDS011;40937;53.594;10.034;2022-10-04T16:58:54;9.98;;;4.78;;
55037;SDS011;40937;53.594;10.034;2022-10-04T17:01:32;9.80;;;4.18;;
55037;SDS011;40937;53.594;10.034;2022-10-04T17:04:13;14.20;;;4.90;;
55037;SDS011;40937;53.594;10.034;2022-10-04T17:07:00;8.10;;;4.38;;
55037;SDS011;40937;53.594;10.034;2022-10-04T17:09:35;10.35;;;4.18;;
55037;SDS011;40937;53.594;10.034;2022-10-04T17:12:14;10.02;;;4.40;;
55037;SDS011;40937;53.594;10.034;2022-10-04T17:14:45;13.35;;;4.40;;
55037;SDS011;40937;53.594;10.034;2022-10-04T17:17:22;7.30;;;4.05;;
55037;SDS011;40937;53.594;10.034;2022-10-04T17:19:58;11.45;;;4.43;;
55037;SDS011;40937;53.594;10.034;2022-10-04T17:22:32;6.32;;;3.85;;
55037;SDS011;40937;53.594;10.034;2022-10-04T17:25:17;8.43;;;4.68;;
55037;SDS011;40937;53.594;10.034;2022-10-04T17:27:53;8.00;;;4.20;;
55037;SDS011;40937;53.594;10.034;2022-10-04T17:30:25;6.53;;;3.85;;
55037;SDS011;40937;53.594;10.034;2022-10-04T17:33:04;7.30;;;4.30;;
55037;SDS011;40937;53.594;10.034;2022-10-04T17:35:51;8.35;;;3.85;;
55037;SDS011;40937;53.594;10.034;2022-10-04T17:38:24;9.32;;;4.20;;
55037;SDS011;40937;53.594;10.034;2022-10-04T17:41:04;10.70;;;3.95;;
55037;SDS011;40937;53.594;10.034;2022-10-04T17:43:43;6.32;;;3.80;;
55037;SDS011;40937;53.594;10.034;2022-10-04T17:46:37;11.07;;;4.05;;
55037;SDS011;40937;53.594;10.034;2022-10-04T17:49:10;10.68;;;3.88;;
55037;SDS011;40937;53.594;10.034;2022-10-04T17:52:02;9.13;;;4.25;;
55037;SDS011;40937;53.594;10.034;2022-10-04T17:54:52;7.25;;;4.07;;
55037;SDS011;40937;53.594;10.034;2022-10-04T17:57:46;9.95;;;4.40;;
55037;SDS011;40937;53.594;10.034;2022-10-04T18:00:16;5.10;;;3.75;;
55037;SDS011;40937;53.594;10.034;2022-10-04T18:05:34;7.03;;;4.05;;
55037;SDS011;40937;53.594;10.034;2022-10-04T18:08:11;7.00;;;4.20;;
55037;SDS011;40937;53.594;10.034;2022-10-04T18:10:45;8.40;;;3.97;;
55037;SDS011;40937;53.594;10.034;2022-10-04T18:13:16;7.40;;;3.92;;
55037;SDS011;40937;53.594;10.034;2022-10-04T18:15:51;8.52;;;3.65;;
55037;SDS011;40937;53.594;10.034;2022-10-04T18:18:25;10.48;;;3.92;;
55037;SDS011;40937;53.594;10.034;2022-10-04T18:21:04;7.78;;;3.75;;
55037;SDS011;40937;53.594;10.034;2022-10-04T18:23:50;7.85;;;3.60;;
55037;SDS011;40937;53.594;10.034;2022-10-04T18:26:18;7.32;;;3.92;;
55037;SDS011;40937;53.594;10.034;2022-10-04T18:28:48;13.23;;;4.45;;
55037;SDS011;40937;53.594;10.034;2022-10-04T18:31:22;7.85;;;4.25;;
55037;SDS011;40937;53.594;10.034;2022-10-04T18:33:55;8.43;;;4.00;;
55037;SDS011;40937;53.594;10.034;2022-10-04T18:36:28;9.93;;;4.43;;
55037;SDS011;40937;53.594;10.034;2022-10-04T18:38:59;6.50;;;4.05;;
55037;SDS011;40937;53.594;10.034;2022-10-04T18:41:28;7.28;;;3.83;;
55037;SDS011;40937;53.594;10.034;2022-10-04T18:44:13;7.03;;;3.72;;
55037;SDS011;40937;53.594;10.034;2022-10-04T18:46:41;13.25;;;5.22;;
55037;SDS011;40937;53.594;10.034;2022-10-04T18:49:13;7.28;;;4.38;;
55037;SDS011;40937;53.594;10.034;2022-10-04T18:51:43;8.82;;;4.78;;
55037;SDS011;40937;53.594;10.034;2022-10-04T18:54:20;7.95;;;4.30;;
55037;SDS011;40937;53.594;10.034;2022-10-04T18:56:58;7.90;;;4.22;;
55037;SDS011;40937;53.594;10.034;2022-10-04T18:59:37;8.32;;;4.38;;
55037;SDS011;40937;53.594;10.034;2022-10-04T19:02:34;14.55;;;3.95;;
55037;SDS011;40937;53.594;10.034;2022-10-04T19:05:14;12.38;;;4.85;;
55037;SDS011;40937;53.594;10.034;2022-10-04T19:07:48;13.68;;;5.10;;
55037;SDS011;40937;53.594;10.034;2022-10-04T19:10:23;7.70;;;4.30;;
55037;SDS011;40937;53.594;10.034;2022-10-04T19:12:58;13.60;;;4.50;;
55037;SDS011;40937;53.594;10.034;2022-10-04T19:15:43;7.45;;;4.25;;
55037;SDS011;40937;53.594;10.034;2022-10-04T19:18:31;7.28;;;4.80;;
55037;SDS011;40937;53.594;10.034;2022-10-04T19:21:10;8.93;;;4.25;;
55037;SDS011;40937;53.594;10.034;2022-10-04T19:23:58;5.43;;;4.22;;
55037;SDS011;40937;53.594;10.034;2022-10-04T19:26:33;11.38;;;4.75;;
55037;SDS011;40937;53.594;10.034;2022-10-04T19:29:07;10.10;;;4.57;;
55037;SDS011;40937;53.594;10.034;2022-10-04T19:31:50;9.10;;;5.22;;
55037;SDS011;40937;53.594;10.034;2022-10-04T19:34:23;7.13;;;3.90;;
55037;SDS011;40937;53.594;10.034;2022-10-04T19:37:00;8.38;;;5.22;;
55037;SDS011;40937;53.594;10.034;2022-10-04T19:39:35;10.20;;;5.25;;
55037;SDS011;40937;53.594;10.034;2022-10-04T19:42:08;14.90;;;5.93;;
55037;SDS011;40937;53.594;10.034;2022-10-04T19:44:43;8.60;;;5.88;;
55037;SDS011;40937;53.594;10.034;2022-10-04T19:47:27;14.20;;;7.22;;
55037;SDS011;40937;53.594;10.034;2022-10-04T19:50:05;7.60;;;4.50;;
55037;SDS011;40937;53.594;10.034;2022-10-04T19:52:45;5.47;;;4.22;;
55037;SDS011;40937;53.594;10.034;2022-10-04T19:55:21;12.07;;;5.53;;
55037;SDS011;40937;53.594;10.034;2022-10-04T19:57:53;7.85;;;6.00;;
55037;SDS011;40937;53.594;10.034;2022-10-04T20:00:26;23.83;;;19.38;;
55037;SDS011;40937;53.594;10.034;2022-10-04T20:02:54;11.90;;;9.02;;
55037;SDS011;40937;53.594;10.034;2022-10-04T20:05:21;13.02;;;6.28;;
55037;SDS011;40937;53.594;10.034;2022-10-04T20:07:50;12.65;;;6.60;;
55037;SDS011;40937;53.594;10.034;2022-10-04T20:10:22;10.15;;;5.65;;
55037;SDS011;40937;53.594;10.034;2022-10-04T20:13:17;10.60;;;6.18;;
55037;SDS011;40937;53.594;10.034;2022-10-04T20:15:50;12.93;;;5.30;;
55037;SDS011;40937;53.594;10.034;2022-10-04T20:21:35;15.85;;;6.43;;
55037;SDS011;40937;53.594;10.034;2022-10-04T20:24:01;14.68;;;5.60;;
55037;SDS011;40937;53.594;10.034;2022-10-04T20:38:45;11.77;;;6.97;;
55037;SDS011;40937;53.594;10.034;2022-10-04T20:44:48;8.90;;;5.32;;
55037;SDS011;40937;53.594;10.034;2022-10-04T20:50:12;7.35;;;5.57;;
55037;SDS011;40937;53.594;10.034;2022-10-04T20:52:55;10.38;;;5.72;;
55037;SDS011;40937;53.594;10.034;2022-10-04T20:55:26;13.98;;;6.05;;
55037;SDS011;40937;53.594;10.034;2022-10-04T20:57:55;16.15;;;6.25;;
55037;SDS011;40937;53.594;10.034;2022-10-04T21:00:25;12.52;;;5.70;;
55037;SDS011;40937;53.594;10.034;2022-10-04T21:03:14;8.80;;;5.35;;
55037;SDS011;40937;53.594;10.034;2022-10-04T21:05:43;10.38;;;6.00;;
55037;SDS011;40937;53.594;10.034;2022-10-04T21:08:14;9.68;;;6.15;;
55037;SDS011;40937;53.594;10.034;2022-10-04T21:11:10;10.13;;;6.20;;
55037;SDS011;40937;53.594;10.034;2022-10-04T21:13:40;9.18;;;5.97;;
55037;SDS011;40937;53.594;10.034;2022-10-04T21:16:07;10.35;;;5.90;;
55037;SDS011;40937;53.594;10.034;2022-10-04T21:18:34;15.48;;;6.10;;
55037;SDS011;40937;53.594;10.034;2022-10-04T21:21:01;10.27;;;5.75;;
55037;SDS011;40937;53.594;10.034;2022-10-04T21:23:28;13.43;;;5.68;;
55037;SDS011;40937;53.594;10.034;2022-10-04T21:28:47;11.65;;;5.47;;
55037;SDS011;40937;53.594;10.034;2022-10-04T21:31:17;10.73;;;5.50;;